Time;durP1;ratioP1;P1;durP2;ratioP2;P2;SDS_P1;SDS_P2;PMS_P1;PMS_P2;Temp;Humidity;BMP_temperature;BMP_pressure;BME280_temperature;BME280_humidity;BME280_pressure;Samples;Min_cycle;Max_cycle;Signal;HPM_P1;HPM_P2
2023/10/21 00:00:28;;;;;;;1999.90;999.90;;;;;;;12.10;100.00;95424.66;18629650;31;20057;-58
2023/10/21 00:10:30;;;;;;;1999.90;999.90;;;;;;;11.99;100.00;95445.16;18628920;31;20397;-58
2023/10/21 00:20:32;;;;;;;1999.90;999.90;;;;;;;11.79;100.00;95452.94;18628691;31;20053;-59
2023/10/21 00:30:35;;;;;;;1999.90;999.90;;;;;;;11.64;100.00;95472.50;18628230;31;20148;-59
2023/10/21 00:40:37;;;;;;;1999.90;999.90;;;;;;;11.68;100.00;95481.56;18606283;31;20048;-59
2023/10/21 00:50:40;;;;;;;1999.90;999.90;;;;;;;11.60;100.00;95506.78;18627099;31;20052;-58
2023/10/21 01:00:43;;;;;;;1999.90;999.90;;;;;;;11.68;100.00;95516.75;18626474;31;20072;-59
2023/10/21 01:10:45;;;;;;;1999.90;999.90;;;;;;;11.68;100.00;95544.59;18626171;31;20155;-59
2023/10/21 01:20:52;;;;;;;1999.90;999.90;;;;;;;11.72;100.00;95549.34;18625727;31;20365;-58
2023/10/21 01:30:55;;;;;;;1999.90;999.90;;;;;;;11.79;100.00;95568.59;18611085;31;20297;-58
2023/10/21 01:40:58;;;;;;;1999.90;999.90;;;;;;;11.85;100.00;95587.00;18618739;31;20405;-58
2023/10/21 01:51:04;;;;;;;1999.90;999.90;;;;;;;12.00;100.00;95603.81;18624938;31;20033;-59
2023/10/21 02:01:08;;;;;;;1999.90;999.90;;;;;;;12.08;100.00;95621.91;18624607;31;20083;-59
2023/10/21 02:11:11;;;;;;;1999.90;999.90;;;;;;;12.11;100.00;95621.25;18610453;31;20044;-58
2023/10/21 02:21:13;;;;;;;1999.90;999.90;;;;;;;12.11;100.00;95642.91;18609634;31;20052;-59
2023/10/21 02:31:15;;;;;;;1999.90;999.90;;;;;;;12.13;100.00;95673.19;18632324;31;20117;-59
2023/10/21 02:41:19;;;;;;;1999.90;999.90;;;;;;;12.11;100.00;95697.09;18620297;31;20048;-58
2023/10/21 02:51:21;;;;;;;1999.90;999.90;;;;;;;11.96;100.00;95709.31;18634521;31;20368;-59
2023/10/21 03:01:26;;;;;;;1999.90;999.90;;;;;;;11.79;100.00;95734.50;18619345;31;20048;-58
2023/10/21 03:11:29;;;;;;;1999.90;999.90;;;;;;;11.78;100.00;95743.75;18633171;31;20375;-59
2023/10/21 03:21:31;;;;;;;1999.90;999.90;;;;;;;11.66;100.00;95762.59;18625735;31;20053;-59
2023/10/21 03:31:34;;;;;;;1999.90;999.90;;;;;;;11.62;100.00;95777.87;18617509;31;20040;-58
2023/10/21 03:41:36;;;;;;;1999.90;999.90;;;;;;;11.55;100.00;95794.63;18616147;31;20064;-59
2023/10/21 03:51:39;;;;;;;1999.90;999.90;;;;;;;11.47;100.00;95817.91;18630696;31;20097;-59
2023/10/21 04:01:41;;;;;;;1999.90;999.90;;;;;;;11.55;100.00;95823.59;18615822;31;20067;-58
2023/10/21 04:11:44;;;;;;;1999.90;999.90;;;;;;;11.66;100.00;95833.78;18614858;31;20063;-58
2023/10/21 04:21:46;;;;;;;1999.90;999.90;;;;;;;11.65;100.00;95855.75;18628822;31;20083;-58
2023/10/21 04:31:48;;;;;;;1999.90;999.90;;;;;;;11.63;100.00;95872.28;18628022;31;20099;-58
2023/10/21 04:41:51;;;;;;;1999.90;999.90;;;;;;;11.51;100.00;95881.09;18600271;31;20401;-58
2023/10/21 04:51:53;;;;;;;1999.90;999.90;;;;;;;11.32;100.00;95910.38;18626913;31;20068;-58
2023/10/21 05:01:56;;;;;;;1999.90;999.90;;;;;;;11.23;100.00;95926.59;18626729;31;20163;-58
2023/10/21 05:12:02;;;;;;;1999.90;999.90;;;;;;;11.11;100.00;95959.66;18605345;31;20423;-58
2023/10/21 05:22:05;;;;;;;1999.90;999.90;;;;;;;11.27;100.00;95962.72;18611419;31;20053;-59
2023/10/21 05:32:08;;;;;;;1999.90;999.90;;;;;;;11.26;100.00;95976.56;18625244;31;20069;-58
2023/10/21 05:42:12;;;;;;;1999.90;999.90;;;;;;;11.42;100.00;95985.81;18624883;31;20397;-58
2023/10/21 05:52:15;;;;;;;1999.90;999.90;;;;;;;11.29;100.00;96000.28;18610888;31;20053;-58
2023/10/21 06:02:17;;;;;;;1999.90;999.90;;;;;;;11.18;100.00;95997.06;18626012;31;20060;-58
2023/10/21 06:12:21;;;;;;;1999.90;999.90;;;;;;;11.03;100.00;96019.94;18606193;31;20108;-58
2023/10/21 06:22:24;;;;;;;1999.90;999.90;;;;;;;11.06;100.00;96032.88;18636270;31;20079;-58
2023/10/21 06:32:27;;;;;;;1999.90;999.90;;;;;;;11.18;100.00;96049.28;18621067;31;20044;-58
2023/10/21 06:42:30;;;;;;;1999.90;999.90;;;;;;;11.40;100.00;96066.53;18634711;31;20052;-58
2023/10/21 06:52:33;;;;;;;1999.90;999.90;;;;;;;11.31;100.00;96071.91;18634669;31;20071;-58
2023/10/21 07:02:36;;;;;;;1999.90;999.90;;;;;;;11.16;100.00;96092.06;18633419;31;20063;-58
2023/10/21 07:12:39;;;;;;;1999.90;999.90;;;;;;;11.28;100.00;96099.59;18618842;31;20044;-58
2023/10/21 07:22:44;;;;;;;1999.90;999.90;;;;;;;11.52;100.00;96120.84;18618040;31;20090;-58
2023/10/21 07:32:47;;;;;;;1999.90;999.90;;;;;;;11.67;100.00;96140.47;18631794;31;20057;-58
2023/10/21 07:42:50;;;;;;;1999.90;999.90;;;;;;;11.92;100.00;96159.78;18630933;31;20122;-58
2023/10/21 07:52:53;;;;;;;1999.90;999.90;;;;;;;12.05;100.00;96160.81;18610000;31;20044;-58
2023/10/21 08:02:56;;;;;;;1999.90;999.90;;;;;;;12.16;100.00;96165.59;18630229;31;20056;-58
2023/10/21 08:12:58;;;;;;;1999.90;999.90;;;;;;;12.30;100.00;96189.06;18629201;31;20048;-58
2023/10/21 08:23:01;;;;;;;1999.90;999.90;;;;;;;12.63;100.00;96188.59;18628159;31;20097;-58
2023/10/21 08:33:06;;;;;;;1999.90;999.90;;;;;;;13.04;100.00;96214.41;18627971;31;20075;-58
2023/10/21 08:43:09;;;;;;;1999.90;999.90;;;;;;;13.24;100.00;96231.94;18612859;31;20476;-58
2023/10/21 08:53:12;;;;;;;1999.90;999.90;;;;;;;13.19;100.00;96238.31;18612788;31;20372;-58
2023/10/21 09:03:14;;;;;;;1999.90;999.90;;;;;;;13.34;100.00;96249.78;18612254;31;20055;-58
2023/10/21 09:13:17;;;;;;;1999.90;999.90;;;;;;;13.51;100.00;96255.22;18611711;31;20425;-58
2023/10/21 09:23:21;;;;;;;1999.90;999.90;;;;;;;13.77;100.00;96254.31;18625655;31;20119;-58
2023/10/21 09:33:26;;;;;;;1999.90;999.90;;;;;;;13.80;100.00;96255.56;18625094;31;20061;-58
2023/10/21 09:43:29;;;;;;;1999.90;999.90;;;;;;;13.67;100.00;96289.97;18623174;31;20059;-58
2023/10/21 09:53:40;;;;;;;1999.90;999.90;;;;;;;13.58;100.00;96290.03;18624768;31;20071;-58
2023/10/21 10:03:43;;;;;;;1999.90;999.90;;;;;;;13.85;100.00;96283.38;18623785;31;20064;-58
2023/10/21 10:13:48;;;;;;;1999.90;999.90;;;;;;;13.93;100.00;96287.19;18623069;31;20141;-58
2023/10/21 10:23:55;;;;;;;1999.90;999.90;;;;;;;14.18;100.00;96288.19;18636250;31;20056;-58
2023/10/21 10:34:00;;;;;;;1999.90;999.90;;;;;;;14.36;100.00;96288.09;18635812;31;20483;-58
2023/10/21 10:44:06;;;;;;;1999.90;999.90;;;;;;;14.60;100.00;96298.34;18634674;31;20057;-58
2023/10/21 10:54:15;;;;;;;1999.90;999.90;;;;;;;14.77;100.00;96281.13;18634215;31;20044;-58
2023/10/21 11:04:19;;;;;;;1999.90;999.90;;;;;;;14.86;100.00;96275.66;18606936;31;20064;-58
2023/10/21 11:14:24;;;;;;;1999.90;999.90;;;;;;;14.81;100.00;96278.56;18619133;31;20064;-58
2023/10/21 11:24:27;;;;;;;1999.90;999.90;;;;;;;15.02;100.00;96281.25;18632511;31;20060;-58
2023/10/21 11:34:30;;;;;;;1999.90;999.90;;;;;;;14.99;100.00;96281.94;18631762;31;20045;-58
2023/10/21 11:44:32;;;;;;;1999.90;999.90;;;;;;;14.83;100.00;96292.66;18630962;31;20097;-58
2023/10/21 11:54:39;;;;;;;1999.90;999.90;;;;;;;15.03;100.00;96291.03;18617110;31;20057;-58
2023/10/21 12:45:45;;;;;;;1999.90;999.90;;;;;;;15.90;100.00;96268.41;18627211;31;20056;-58
2023/10/21 12:55:48;;;;;;;1999.90;999.90;;;;;;;15.68;100.00;96255.19;18627466;31;20052;-59
2023/10/21 13:05:52;;;;;;;1999.90;999.90;;;;;;;16.32;100.00;96258.41;18611987;31;20060;-59
2023/10/21 13:15:56;;;;;;;1999.90;999.90;;;;;;;16.15;100.00;96254.00;18626041;31;20061;-59
2023/10/21 13:25:59;;;;;;;1999.90;999.90;;;;;;;15.49;100.00;96261.94;18625247;31;20065;-58
2023/10/21 13:36:05;;;;;;;1999.90;999.90;;;;;;;15.56;100.00;96262.19;18611384;31;20436;-58
2023/10/21 13:46:09;;;;;;;1999.90;999.90;;;;;;;15.92;100.00;96277.06;18624679;31;20057;-58
2023/10/21 13:56:12;;;;;;;1999.90;999.90;;;;;;;16.25;100.00;96269.88;18624859;31;20057;-58
2023/10/21 14:06:14;;;;;;;1999.90;999.90;;;;;;;16.32;100.00;96285.69;18624538;31;20060;-58
2023/10/21 14:16:19;;;;;;;1999.90;999.90;;;;;;;16.09;100.00;96277.97;18602551;31;20107;-59
2023/10/21 14:26:23;;;;;;;1999.90;999.90;;;;;;;16.05;100.00;96291.47;18631553;31;20048;-59
2023/10/21 14:36:26;;;;;;;1999.90;999.90;;;;;;;15.98;100.00;96310.34;18635863;31;20048;-59
2023/10/21 14:46:30;;;;;;;1999.90;999.90;;;;;;;15.95;100.00;96321.09;18634609;31;20384;-59
2023/10/21 14:56:33;;;;;;;1999.90;999.90;;;;;;;15.50;100.00;96318.03;18634585;31;20048;-58
2023/10/21 15:06:37;;;;;;;1999.90;999.90;;;;;;;15.30;100.00;96330.53;18633811;31;20381;-58
2023/10/21 15:16:40;;;;;;;1999.90;999.90;;;;;;;14.94;100.00;96322.94;18633098;31;20120;-59
2023/10/21 15:26:44;;;;;;;1999.90;999.90;;;;;;;14.62;100.00;96325.22;18605147;31;20053;-59
2023/10/21 15:36:52;;;;;;;1999.90;999.90;;;;;;;14.14;100.00;96333.47;18632599;31;20480;-59
2023/10/21 15:46:56;;;;;;;1999.90;999.90;;;;;;;13.81;100.00;96342.19;18564480;32;20079;-58
2023/10/21 15:56:59;;;;;;;1999.90;999.90;;;;;;;13.43;100.00;96340.19;18565308;31;20135;-59
2023/10/21 16:07:01;;;;;;;1999.90;999.90;;;;;;;13.11;100.00;96357.72;18564367;31;20456;-58
2023/10/21 16:17:04;;;;;;;1999.90;999.90;;;;;;;12.90;100.00;96381.97;18564234;31;20144;-59
2023/10/21 16:27:07;;;;;;;1999.90;999.90;;;;;;;12.56;100.00;96395.13;18563750;31;20113;-58
2023/10/21 16:37:10;;;;;;;1999.90;999.90;;;;;;;12.38;100.00;96411.31;18561784;32;20048;-58
2023/10/21 16:47:12;;;;;;;1999.90;999.90;;;;;;;12.17;100.00;96438.16;18617220;31;20044;-58
2023/10/21 16:57:16;;;;;;;1999.90;999.90;;;;;;;11.78;100.00;96453.16;18626966;31;20119;-58
2023/10/21 17:07:19;;;;;;;1999.90;999.90;;;;;;;11.58;100.00;96475.31;18626370;31;20119;-58
2023/10/21 17:17:22;;;;;;;1999.90;999.90;;;;;;;11.39;100.00;96495.22;18626194;31;20084;-58
2023/10/21 17:27:24;;;;;;;1999.90;999.90;;;;;;;11.06;100.00;96516.19;18625579;31;20052;-58
2023/10/21 17:37:27;;;;;;;1999.90;999.90;;;;;;;10.76;100.00;96532.72;18611321;31;20056;-58
2023/10/21 17:47:30;;;;;;;1999.90;999.90;;;;;;;10.65;100.00;96553.72;18545488;32;20087;-58
2023/10/21 17:57:33;;;;;;;1999.90;999.90;;;;;;;10.42;100.00;96552.00;18562922;31;20109;-58
2023/10/21 18:07:36;;;;;;;1999.90;999.90;;;;;;;10.25;100.00;96574.09;18572105;31;20077;-58
2023/10/21 18:17:38;;;;;;;1999.90;999.90;;;;;;;9.88;100.00;96581.13;18571700;31;20075;-58
2023/10/21 18:27:41;;;;;;;1999.90;999.90;;;;;;;9.72;100.00;96592.16;18570655;32;20070;-58
2023/10/21 18:37:44;;;;;;;1999.90;999.90;;;;;;;9.44;100.00;96601.97;18570249;32;20045;-58
2023/10/21 18:47:46;;;;;;;1999.90;999.90;;;;;;;9.15;100.00;96606.34;18628786;31;20072;-58
2023/10/21 18:57:50;;;;;;;1999.90;999.90;;;;;;;9.20;100.00;96616.28;18634221;31;20100;-58
2023/10/21 19:07:53;;;;;;;1999.90;999.90;;;;;;;8.99;100.00;96629.19;18619460;31;20078;-58
2023/10/21 19:17:56;;;;;;;1999.90;999.90;;;;;;;8.92;100.00;96639.47;18618833;31;20049;-58
2023/10/21 19:27:59;;;;;;;1999.90;999.90;;;;;;;8.86;100.00;96648.72;18605734;31;20112;-58
2023/10/21 19:38:02;;;;;;;1999.90;999.90;;;;;;;8.77;100.00;96643.94;18605004;31;20459;-58
2023/10/21 19:48:05;;;;;;;1999.90;999.90;;;;;;;8.88;100.00;96670.78;18551561;32;20093;-58
2023/10/21 19:58:07;;;;;;;1999.90;999.90;;;;;;;8.84;100.00;96685.91;18565460;31;20369;-58
2023/10/21 20:08:10;;;;;;;1999.90;999.90;;;;;;;8.79;100.00;96692.94;18564708;31;20087;-58
2023/10/21 20:18:13;;;;;;;1999.90;999.90;;;;;;;8.92;100.00;96709.56;18563618;32;20060;-58
2023/10/21 20:28:17;;;;;;;1999.90;999.90;;;;;;;8.90;100.00;96717.16;18563581;31;20059;-58
2023/10/21 20:38:19;;;;;;;1999.90;999.90;;;;;;;8.97;100.00;96720.31;18562762;31;20053;-58
2023/10/21 20:48:23;;;;;;;1999.90;999.90;;;;;;;8.96;100.00;96716.81;18625331;31;20064;-58
2023/10/21 20:58:26;;;;;;;1999.90;999.90;;;;;;;8.86;100.00;96726.88;18627046;31;20071;-58
2023/10/21 21:08:29;;;;;;;1999.90;999.90;;;;;;;8.79;100.00;96744.16;18626575;31;20064;-58
2023/10/21 21:18:32;;;;;;;1999.90;999.90;;;;;;;8.86;100.00;96749.25;18626099;31;20056;-58
2023/10/21 21:28:34;;;;;;;1999.90;999.90;;;;;;;8.95;100.00;96752.94;18612120;31;20052;-58
2023/10/21 21:38:37;;;;;;;1999.90;999.90;;;;;;;9.05;100.00;96757.44;18611165;31;20429;-58
2023/10/21 21:48:40;;;;;;;1999.90;999.90;;;;;;;9.12;100.00;96776.78;18624656;31;20103;-58
2023/10/21 21:58:42;;;;;;;1999.90;999.90;;;;;;;9.27;100.00;96780.47;18624716;31;20057;-58
2023/10/21 22:08:45;;;;;;;1999.90;999.90;;;;;;;9.35;100.00;96787.16;18624401;31;20049;-58
2023/10/21 22:18:48;;;;;;;1999.90;999.90;;;;;;;9.48;100.00;96787.28;18624215;31;20478;-58
2023/10/21 22:28:51;;;;;;;1999.90;999.90;;;;;;;9.56;100.00;96798.56;18617234;31;20410;-54
2023/10/21 22:38:54;;;;;;;1999.90;999.90;;;;;;;9.64;100.00;96803.31;18623662;31;20057;-58
2023/10/21 22:48:57;;;;;;;1999.90;999.90;;;;;;;9.70;100.00;96812.19;18632946;31;20064;-57
2023/10/21 22:58:59;;;;;;;1999.90;999.90;;;;;;;9.77;100.00;96843.16;18620980;31;20095;-58
2023/10/21 23:09:15;;;;;;;1999.90;999.90;;;;;;;9.73;100.00;96861.00;18633786;31;20120;-58
2023/10/21 23:19:23;;;;;;;1999.90;999.90;;;;;;;9.70;100.00;96871.56;18630043;31;20044;-59
2023/10/21 23:29:26;;;;;;;1999.90;999.90;;;;;;;9.83;100.00;96885.19;18615225;31;20082;-58
2023/10/21 23:39:29;;;;;;;1999.90;999.90;;;;;;;9.83;100.00;96896.00;18631896;31;20126;-58
2023/10/21 23:49:32;;;;;;;1999.90;999.90;;;;;;;9.84;100.00;96900.31;18631210;31;20056;-58
2023/10/21 23:59:34;;;;;;;1999.90;999.90;;;;;;;9.70;100.00;96912.06;18629921;31;20072;-59
